createdAt,value
2022-12-31T00:00:28.021Z,0.8
2022-12-31T00:06:19.021Z,0.8
2022-12-31T00:12:02.933Z,0.6
2022-12-31T00:17:45.746Z,0.6
2022-12-31T00:23:28.946Z,0.7
2022-12-31T00:29:12.163Z,0.6
2022-12-31T00:34:55.253Z,0.7
2022-12-31T00:40:38.141Z,0.4
2022-12-31T00:46:21.668Z,0.4
2022-12-31T00:52:04.706Z,0.5
2022-12-31T00:57:47.530Z,0.5
2022-12-31T01:03:30.351Z,0.5
2022-12-31T01:09:13.958Z,0.5
2022-12-31T01:14:56.974Z,0.4
2022-12-31T01:20:41.956Z,0.4
2022-12-31T01:26:24.723Z,0.3
2022-12-31T01:32:08.746Z,0.5
2022-12-31T01:37:51.575Z,0.5
2022-12-31T01:43:49.024Z,0.4
2022-12-31T01:49:36.776Z,0.5
2022-12-31T01:55:22.836Z,0.4
2022-12-31T02:01:08.954Z,0.3
2022-12-31T02:06:54.954Z,0.4
2022-12-31T02:12:37.779Z,0.5
2022-12-31T02:18:24.460Z,0.4
2022-12-31T02:24:21.050Z,0.3
2022-12-31T02:30:14.464Z,0.5
2022-12-31T02:35:59.136Z,0.4
2022-12-31T02:41:41.932Z,0.5
2022-12-31T02:47:34.331Z,0.5
2022-12-31T02:53:22.766Z,0.3
2022-12-31T02:59:09.779Z,0.5
2022-12-31T03:04:53.678Z,0.5
2022-12-31T03:10:36.797Z,0.7
2022-12-31T03:16:20.833Z,0.4
2022-12-31T03:22:03.759Z,0.7
2022-12-31T03:27:47.160Z,0.5
2022-12-31T03:33:32.023Z,0.4
2022-12-31T03:39:14.952Z,0.5
2022-12-31T03:44:57.838Z,0.7
2022-12-31T03:50:40.891Z,0.7
2022-12-31T03:56:24.806Z,0.6
2022-12-31T04:02:08.525Z,0.6
2022-12-31T04:07:51.626Z,0.6
2022-12-31T04:13:35.674Z,0.6
2022-12-31T04:19:18.588Z,0.5
2022-12-31T04:25:01.401Z,0.6
2022-12-31T04:30:44.706Z,0.7
2022-12-31T04:36:27.392Z,0.6
2022-12-31T04:42:12.240Z,0.7
2022-12-31T04:47:55.189Z,0.7
2022-12-31T04:53:39.353Z,0.6
2022-12-31T04:59:22.087Z,0.6
2022-12-31T05:05:04.997Z,0.6
2022-12-31T05:10:48.597Z,0.6
2022-12-31T05:16:31.494Z,0.8
2022-12-31T05:22:14.543Z,0.9
2022-12-31T05:27:58.345Z,0.9
2022-12-31T05:33:41.147Z,0.7
2022-12-31T05:39:23.756Z,0.7
2022-12-31T05:45:07.409Z,0.6
2022-12-31T05:50:50.522Z,0.7
2022-12-31T05:56:33.154Z,0.8
2022-12-31T06:02:16.181Z,0.8
2022-12-31T06:07:59.171Z,0.8
2022-12-31T06:13:42.871Z,0.7
2022-12-31T06:19:25.974Z,0.6
2022-12-31T06:25:09.921Z,0.8
2022-12-31T06:30:52.927Z,0.8
2022-12-31T06:36:35.890Z,0.8
2022-12-31T06:42:18.836Z,0.8
2022-12-31T06:48:02.624Z,0.7
2022-12-31T06:53:46.073Z,1
2022-12-31T06:59:30.862Z,0.8
2022-12-31T07:05:15.445Z,0.8
2022-12-31T07:11:03.223Z,1
2022-12-31T07:16:55.346Z,0.9
2022-12-31T07:22:38.794Z,0.8
2022-12-31T07:28:26.683Z,0.7
2022-12-31T07:34:12.079Z,0.9
2022-12-31T07:40:01.684Z,0.8
2022-12-31T07:45:49.395Z,1
2022-12-31T07:51:33.956Z,1.1
2022-12-31T07:57:18.345Z,0.9
2022-12-31T08:03:12.272Z,1
2022-12-31T08:09:00.157Z,1.1
2022-12-31T08:14:45.055Z,0.9
2022-12-31T08:20:28.618Z,0.8
2022-12-31T08:26:17.390Z,0.8
2022-12-31T08:32:05.065Z,0.9
2022-12-31T08:37:51.756Z,1
2022-12-31T08:43:49.449Z,0.9
2022-12-31T08:49:33.867Z,0.9
2022-12-31T08:55:20.931Z,1.8
2022-12-31T09:01:07.079Z,1.2
2022-12-31T09:06:56.159Z,1.1
2022-12-31T09:12:43.146Z,1
2022-12-31T09:18:35.171Z,1.1
2022-12-31T09:24:19.520Z,1.8
2022-12-31T09:30:03.770Z,1.2
2022-12-31T09:35:50.649Z,1.5
2022-12-31T09:41:41.267Z,1.1
2022-12-31T09:47:35.572Z,1.2
2022-12-31T09:53:29.428Z,1.1
2022-12-31T09:59:21.247Z,1.3
2022-12-31T10:05:14.278Z,1.3
2022-12-31T10:10:59.618Z,1.2
2022-12-31T10:16:49.389Z,1.5
2022-12-31T10:22:51.519Z,1.3
2022-12-31T10:28:40.527Z,1
2022-12-31T10:34:27.496Z,1.4
2022-12-31T10:40:17.347Z,1.2
2022-12-31T10:46:15.065Z,1.2
2022-12-31T10:52:19.280Z,1.3
2022-12-31T10:58:16.648Z,1.2
2022-12-31T11:04:09.291Z,1
2022-12-31T11:10:07.238Z,1.2
2022-12-31T11:15:58.273Z,1.2
2022-12-31T11:21:48.478Z,1.2
2022-12-31T11:27:36.769Z,1.6
2022-12-31T11:33:25.981Z,1.4
2022-12-31T11:39:19.130Z,1.2
2022-12-31T11:45:06.507Z,1.4
2022-12-31T11:50:52.936Z,1.4
2022-12-31T11:56:38.832Z,1.6
2022-12-31T12:02:26.791Z,1.5
2022-12-31T12:08:10.019Z,1.6
2022-12-31T12:13:53.607Z,1.7
2022-12-31T12:19:37.753Z,1.6
2022-12-31T12:25:23.255Z,1.4
2022-12-31T12:31:06.645Z,1.5
2022-12-31T12:36:51.212Z,1.4
2022-12-31T12:42:34.350Z,1.7
2022-12-31T12:48:20.607Z,1.5
2022-12-31T12:54:07.843Z,1.4
2022-12-31T12:59:59.136Z,1.6
2022-12-31T13:05:48.953Z,1.7
2022-12-31T13:11:38.342Z,1.5
2022-12-31T13:17:32.407Z,1.7
2022-12-31T13:23:18.258Z,1.7
2022-12-31T13:29:03.334Z,1.8
2022-12-31T13:34:47.485Z,1.8
2022-12-31T13:40:33.306Z,1.6
2022-12-31T13:46:20.274Z,2
2022-12-31T13:52:06.998Z,1.9
2022-12-31T13:57:52.202Z,1.6
2022-12-31T14:03:39.623Z,1.8
2022-12-31T14:09:24.359Z,1.9
2022-12-31T14:15:12.440Z,1.8
2022-12-31T14:21:00.150Z,2
2022-12-31T14:26:45.383Z,2.1
2022-12-31T14:32:46.073Z,1.8
2022-12-31T14:38:38.176Z,2
2022-12-31T14:44:36.902Z,1.9
2022-12-31T14:50:24.405Z,2
2022-12-31T14:56:14.916Z,2.2
2022-12-31T15:02:00.968Z,2.1
2022-12-31T15:07:50.019Z,2.3
2022-12-31T15:13:39.143Z,2
2022-12-31T15:19:33.753Z,2
2022-12-31T15:25:42.121Z,2.1
2022-12-31T15:31:26.517Z,1.9
2022-12-31T15:37:20.306Z,1.8
2022-12-31T15:43:06.017Z,1.9
2022-12-31T15:49:03.855Z,1.7
2022-12-31T15:54:52.896Z,2
2022-12-31T16:00:45.193Z,1.9
2022-12-31T16:06:30.044Z,1.9
2022-12-31T16:12:18.842Z,1.8
2022-12-31T16:18:06.621Z,2.7
2022-12-31T16:23:55.671Z,2
2022-12-31T16:29:43.108Z,2
2022-12-31T16:35:28.000Z,1.8
2022-12-31T16:41:17.289Z,1.8
2022-12-31T16:47:04.271Z,1.8
2022-12-31T16:52:48.453Z,2
2022-12-31T16:58:32.715Z,2.1
2022-12-31T17:04:18.235Z,1.9
2022-12-31T17:10:15.107Z,2.1
2022-12-31T17:15:58.411Z,1.9
2022-12-31T17:21:47.629Z,1.9
2022-12-31T17:27:31.537Z,2
2022-12-31T17:33:25.714Z,2.2
2022-12-31T17:39:22.944Z,1.9
2022-12-31T17:45:07.703Z,2
2022-12-31T17:50:52.494Z,1.9
2022-12-31T17:56:35.592Z,1.9
2022-12-31T18:02:19.015Z,2
2022-12-31T18:08:02.171Z,2.2
2022-12-31T18:13:45.680Z,2.1
2022-12-31T18:20:03.435Z,2.1
2022-12-31T18:25:31.790Z,2.1
2022-12-31T18:31:18.601Z,2.1
2022-12-31T18:37:01.900Z,1.9
2022-12-31T18:42:45.720Z,2.3
2022-12-31T18:48:28.796Z,2.1
2022-12-31T18:54:12.465Z,2
2022-12-31T18:59:56.203Z,1.8
2022-12-31T19:05:39.182Z,2.1
2022-12-31T19:11:22.431Z,1.9
2022-12-31T19:22:44.501Z,2.3
2022-12-31T19:28:28.312Z,2.2
2022-12-31T19:34:11.150Z,2
2022-12-31T19:39:53.875Z,2.7
2022-12-31T19:45:36.751Z,2
2022-12-31T19:51:21.156Z,2.2
2022-12-31T19:57:04.006Z,2.1
2022-12-31T20:02:48.308Z,2
2022-12-31T20:08:31.601Z,2.2
2022-12-31T20:14:14.372Z,1.9
2022-12-31T20:19:57.252Z,2.5
2022-12-31T20:25:40.046Z,2.2
2022-12-31T20:31:25.034Z,2.3
2022-12-31T20:37:07.998Z,2.4
2022-12-31T20:42:50.776Z,2.2
2022-12-31T20:48:33.660Z,2
2022-12-31T20:54:16.476Z,2.2
2022-12-31T20:59:59.452Z,2.2
2022-12-31T21:05:47.659Z,2.4
2022-12-31T21:11:31.136Z,2.2
2022-12-31T21:17:14.137Z,2.1
2022-12-31T21:22:56.933Z,2
2022-12-31T21:28:39.735Z,2
2022-12-31T21:34:22.471Z,2.1
2022-12-31T21:40:05.638Z,1.8
2022-12-31T21:45:48.590Z,2
2022-12-31T21:52:29.915Z,2
2022-12-31T21:58:26.280Z,2.6
2022-12-31T22:04:43.565Z,2
2022-12-31T22:10:13.459Z,1.9
2022-12-31T22:16:06.896Z,2.2
2022-12-31T22:21:49.881Z,2.3
2022-12-31T22:27:32.798Z,2
2022-12-31T22:33:15.609Z,2
2022-12-31T22:38:59.842Z,1.8
2022-12-31T22:44:42.689Z,1.9
2022-12-31T22:50:25.446Z,1.9
2022-12-31T22:56:09.001Z,2
2022-12-31T23:01:51.882Z,1.9
2022-12-31T23:07:34.752Z,2.5
2022-12-31T23:13:17.545Z,5.1
2022-12-31T23:19:06.658Z,4.3
2022-12-31T23:24:49.723Z,3.6
2022-12-31T23:30:32.735Z,3.3
2022-12-31T23:36:15.678Z,3.2
2022-12-31T23:41:59.258Z,4
2022-12-31T23:47:42.184Z,2.9
2022-12-31T23:53:25.219Z,3.1
2022-12-31T23:59:07.978Z,3.5
